Time;durP1;ratioP1;P1;durP2;ratioP2;P2;SDS_P1;SDS_P2;PMS_P1;PMS_P2;Temp;Humidity;BMP_temperature;BMP_pressure;BME280_temperature;BME280_humidity;BME280_pressure;Samples;Min_cycle;Max_cycle;Signal;HPM_P1;HPM_P2
2021/04/23 00:02:07;;;;;;;9.68;4.65;;;5.70;60.40;;;;;;5061974;28;23153;-60
2021/04/23 00:04:33;;;;;;;9.05;4.57;;;5.50;59.80;;;;;;5063723;28;20021;-60
2021/04/23 00:06:58;;;;;;;8.88;4.40;;;5.80;60.80;;;;;;5063267;28;20033;-60
2021/04/23 00:09:26;;;;;;;8.88;4.30;;;6.20;59.50;;;;;;5065905;28;20064;-60
2021/04/23 00:11:57;;;;;;;9.80;4.32;;;5.60;59.80;;;;;;5065905;28;20033;-60
2021/04/23 00:14:25;;;;;;;6.60;3.72;;;5.50;60.90;;;;;;5065657;28;20035;-60
2021/04/23 00:16:51;;;;;;;8.20;4.05;;;5.90;61.40;;;;;;5065814;28;20021;-60
2021/04/23 00:19:20;;;;;;;7.28;3.85;;;5.60;59.70;;;;;;5067326;28;20040;-60
2021/04/23 00:21:46;;;;;;;11.40;4.60;;;5.40;60.60;;;;;;5065664;28;20049;-60
2021/04/23 00:24:12;;;;;;;8.25;4.28;;;5.20;60.60;;;;;;5065449;28;20396;-60
2021/04/23 00:26:38;;;;;;;9.32;4.35;;;5.10;60.70;;;;;;5065679;28;20044;-60
2021/04/23 00:29:04;;;;;;;10.90;4.40;;;5.30;60.90;;;;;;5065290;28;20209;-60
2021/04/23 00:31:30;;;;;;;9.18;4.55;;;5.10;61.20;;;;;;5066853;28;20075;-60
2021/04/23 00:33:55;;;;;;;7.90;4.63;;;5.40;61.00;;;;;;5065722;28;20223;-60
2021/04/23 00:36:21;;;;;;;10.63;4.40;;;5.80;60.30;;;;;;5065242;28;20033;-60
2021/04/23 00:38:47;;;;;;;8.40;4.72;;;5.50;59.40;;;;;;5065358;28;20056;-60
2021/04/23 00:41:14;;;;;;;8.10;4.32;;;5.10;60.50;;;;;;5065060;28;20383;-60
2021/04/23 00:43:44;;;;;;;9.60;4.40;;;5.00;61.20;;;;;;5066945;28;20033;-60
2021/04/23 00:46:10;;;;;;;7.60;4.18;;;4.80;61.50;;;;;;5045557;28;20065;-60
2021/04/23 00:48:46;;;;;;;6.15;3.92;;;4.90;62.10;;;;;;5060301;28;20044;-60
2021/04/23 00:51:26;;;;;;;8.88;4.15;;;5.00;61.60;;;;;;5065344;28;20256;-60
2021/04/23 00:53:52;;;;;;;10.20;4.80;;;4.70;61.30;;;;;;5065320;28;20224;-60
2021/04/23 00:56:23;;;;;;;8.63;4.25;;;4.70;61.80;;;;;;5043184;28;20041;-60
2021/04/23 00:58:48;;;;;;;14.55;4.78;;;5.00;62.20;;;;;;5045244;28;20034;-61
2021/04/23 01:01:22;;;;;;;8.93;4.38;;;4.80;63.10;;;;;;5065412;28;20055;-61
2021/04/23 01:03:47;;;;;;;8.60;4.15;;;5.10;61.20;;;;;;5063802;28;20096;-60
2021/04/23 01:06:16;;;;;;;11.85;4.97;;;5.00;61.60;;;;;;5064570;28;20263;-60
2021/04/23 01:08:42;;;;;;;6.65;3.95;;;5.10;62.30;;;;;;5057000;28;20033;-60
2021/04/23 01:11:08;;;;;;;6.60;3.65;;;5.40;61.80;;;;;;5047426;28;20033;-60
2021/04/23 01:13:34;;;;;;;10.02;4.20;;;5.30;60.50;;;;;;5066064;28;20047;-60
2021/04/23 01:16:11;;;;;;;10.85;4.15;;;4.90;61.20;;;;;;5064409;28;20033;-60
2021/04/23 01:18:37;;;;;;;8.00;4.15;;;4.70;62.80;;;;;;5064521;28;20037;-60
2021/04/23 01:21:14;;;;;;;7.53;4.00;;;4.90;62.60;;;;;;5064221;28;20053;-60
2021/04/23 01:23:41;;;;;;;11.43;4.05;;;4.60;62.20;;;;;;5064214;28;20037;-60
2021/04/23 01:26:07;;;;;;;6.45;3.72;;;4.40;63.50;;;;;;5064468;28;20324;-60
2021/04/23 01:28:33;;;;;;;10.00;4.10;;;4.20;63.70;;;;;;5065809;28;20044;-60
2021/04/23 01:30:59;;;;;;;7.60;3.88;;;4.40;63.30;;;;;;5064395;28;20263;-60
2021/04/23 01:33:25;;;;;;;9.77;4.70;;;4.20;63.90;;;;;;5063818;28;20207;-60
2021/04/23 01:35:50;;;;;;;7.93;4.00;;;4.20;64.10;;;;;;5064148;28;20043;-60
2021/04/23 01:38:16;;;;;;;7.70;4.65;;;4.10;64.50;;;;;;5059747;28;20021;-60
2021/04/23 01:40:42;;;;;;;6.82;3.85;;;4.20;64.50;;;;;;5045005;28;20313;-60
2021/04/23 01:43:08;;;;;;;9.77;4.38;;;4.00;64.40;;;;;;5063871;28;20060;-60
2021/04/23 01:45:34;;;;;;;10.13;3.92;;;4.10;64.90;;;;;;5064220;28;20029;-60
2021/04/23 01:47:59;;;;;;;8.45;3.95;;;4.60;64.40;;;;;;5064023;28;20037;-60
2021/04/23 01:50:25;;;;;;;7.63;3.58;;;4.90;63.50;;;;;;5063890;28;20036;-60
2021/04/23 01:52:50;;;;;;;6.97;4.50;;;4.90;62.50;;;;;;5063528;28;20220;-60
2021/04/23 01:55:18;;;;;;;8.95;4.15;;;4.70;62.00;;;;;;5065554;28;20192;-60
2021/04/23 01:57:44;;;;;;;6.28;3.78;;;4.40;63.70;;;;;;5063927;28;20052;-60
2021/04/23 02:00:12;;;;;;;9.25;3.92;;;4.70;63.60;;;;;;5063943;28;20232;-60
2021/04/23 02:02:38;;;;;;;7.45;4.00;;;4.70;62.20;;;;;;5063499;28;20033;-60
2021/04/23 02:05:04;;;;;;;7.93;4.00;;;4.30;63.60;;;;;;5063487;28;20093;-60
2021/04/23 02:07:31;;;;;;;10.30;4.30;;;4.10;63.60;;;;;;5064974;28;20079;-60
2021/04/23 02:09:56;;;;;;;10.15;4.03;;;3.90;63.90;;;;;;5063852;28;20104;-60
2021/04/23 02:12:22;;;;;;;11.77;4.10;;;3.90;64.20;;;;;;5063354;28;20079;-60
2021/04/23 02:14:47;;;;;;;8.07;4.00;;;3.80;64.80;;;;;;5063552;28;20064;-60
2021/04/23 02:17:13;;;;;;;7.07;3.85;;;3.60;65.50;;;;;;5063493;28;20296;-60
2021/04/23 02:19:38;;;;;;;11.10;4.05;;;3.80;65.30;;;;;;5047126;28;20048;-60
2021/04/23 02:22:04;;;;;;;8.02;4.00;;;3.70;65.90;;;;;;5063748;28;20032;-60
2021/04/23 02:24:30;;;;;;;8.40;4.00;;;3.80;65.70;;;;;;5063587;28;20029;-60
2021/04/23 02:26:55;;;;;;;6.38;3.90;;;3.70;64.90;;;;;;5063129;28;20033;-60
2021/04/23 02:29:21;;;;;;;9.73;4.20;;;3.60;65.50;;;;;;5062596;28;20039;-60
2021/04/23 02:31:49;;;;;;;7.60;3.83;;;3.80;65.60;;;;;;5065071;28;20037;-60
2021/04/23 02:34:15;;;;;;;8.90;3.85;;;3.90;64.50;;;;;;5045654;28;20056;-60
2021/04/23 02:36:41;;;;;;;7.82;4.13;;;4.20;64.80;;;;;;5062151;28;20032;-60
2021/04/23 02:39:11;;;;;;;9.35;3.70;;;3.90;64.30;;;;;;5063312;28;20104;-60
2021/04/23 02:41:37;;;;;;;7.80;3.80;;;3.70;64.80;;;;;;5062876;28;20190;-60
2021/04/23 02:44:03;;;;;;;6.00;3.85;;;3.70;65.10;;;;;;5062721;28;20285;-60
2021/04/23 02:46:28;;;;;;;8.00;3.83;;;3.70;65.50;;;;;;5064609;28;20201;-60
2021/04/23 02:48:54;;;;;;;8.40;3.70;;;3.90;66.60;;;;;;5063209;28;20105;-60
2021/04/23 02:51:28;;;;;;;5.55;3.35;;;4.10;65.80;;;;;;5062083;28;20119;-60
2021/04/23 02:53:54;;;;;;;8.63;3.90;;;4.50;64.70;;;;;;5062934;28;20037;-60
2021/04/23 02:56:20;;;;;;;9.27;3.97;;;4.20;64.10;;;;;;5058319;28;20044;-61
2021/04/23 02:58:45;;;;;;;6.85;3.60;;;4.10;64.00;;;;;;5044487;28;20053;-62
2021/04/23 03:01:19;;;;;;;6.30;3.65;;;4.00;64.20;;;;;;5062837;28;20066;-63
2021/04/23 03:03:44;;;;;;;10.27;3.63;;;3.60;65.20;;;;;;5062977;28;20041;-62
2021/04/23 03:06:10;;;;;;;10.35;4.90;;;3.50;66.10;;;;;;5062459;28;20041;-61
2021/04/23 03:08:36;;;;;;;10.80;3.83;;;3.80;65.00;;;;;;5062363;28;20033;-62
2021/04/23 03:11:10;;;;;;;8.10;3.90;;;3.70;65.00;;;;;;5062376;28;20084;-61
2021/04/23 03:13:36;;;;;;;9.82;3.60;;;3.50;65.80;;;;;;5064300;28;20053;-61
2021/04/23 03:16:02;;;;;;;8.25;3.83;;;3.40;65.80;;;;;;5062596;28;20036;-62
2021/04/23 03:18:28;;;;;;;9.73;3.60;;;3.40;66.30;;;;;;5061658;28;20068;-61
2021/04/23 03:20:54;;;;;;;9.55;3.75;;;3.40;67.00;;;;;;5062401;28;20048;-61
2021/04/23 03:23:20;;;;;;;7.68;3.55;;;3.60;65.70;;;;;;5061002;28;20029;-60
2021/04/23 03:25:45;;;;;;;7.88;3.90;;;3.90;66.20;;;;;;5063877;28;20328;-60
2021/04/23 03:28:11;;;;;;;10.32;3.92;;;3.50;65.60;;;;;;5062757;28;20041;-61
2021/04/23 03:30:40;;;;;;;5.60;3.70;;;3.40;66.30;;;;;;5062808;28;20056;-61
2021/04/23 03:33:05;;;;;;;6.53;3.30;;;3.40;66.30;;;;;;5061482;28;20040;-61
2021/04/23 03:35:31;;;;;;;5.10;3.13;;;3.40;67.20;;;;;;5062300;28;20104;-61
2021/04/23 03:37:57;;;;;;;6.47;3.47;;;3.50;66.00;;;;;;5061979;28;20040;-59
2021/04/23 03:40:24;;;;;;;8.45;3.90;;;3.50;65.70;;;;;;5063723;28;20100;-60
2021/04/23 03:42:49;;;;;;;8.35;3.75;;;3.30;65.90;;;;;;5047972;28;20037;-61
2021/04/23 03:45:16;;;;;;;7.50;3.58;;;3.20;66.50;;;;;;5058069;28;20102;-60
2021/04/23 03:47:42;;;;;;;7.63;3.75;;;3.20;67.00;;;;;;5065449;28;20355;-60
2021/04/23 03:50:09;;;;;;;11.15;3.80;;;3.00;67.40;;;;;;5065469;28;20096;-60
2021/04/23 03:52:35;;;;;;;7.10;3.67;;;3.10;66.90;;;;;;5068127;28;20052;-60
2021/04/23 03:55:04;;;;;;;9.77;3.63;;;3.00;66.60;;;;;;5066479;28;20296;-60
2021/04/23 03:57:30;;;;;;;8.27;3.78;;;2.90;66.90;;;;;;5066363;28;20228;-60
2021/04/23 03:59:56;;;;;;;9.50;3.80;;;2.90;67.50;;;;;;5064506;28;20101;-60
2021/04/23 04:02:21;;;;;;;6.75;3.67;;;3.10;67.40;;;;;;5065743;28;20025;-61
2021/04/23 04:04:47;;;;;;;10.07;3.92;;;3.40;66.60;;;;;;5067635;28;20300;-61
2021/04/23 04:07:13;;;;;;;6.85;3.55;;;3.30;67.20;;;;;;5066662;28;20033;-61
2021/04/23 04:09:38;;;;;;;10.63;4.13;;;3.20;66.30;;;;;;5065722;28;20052;-62
2021/04/23 04:12:04;;;;;;;9.90;4.18;;;2.90;66.60;;;;;;5065837;28;20052;-61
2021/04/23 04:14:30;;;;;;;7.45;3.97;;;2.90;67.30;;;;;;5065592;28;20131;-61
2021/04/23 04:16:55;;;;;;;8.35;3.42;;;2.90;67.30;;;;;;5064671;28;20028;-62
2021/04/23 04:19:21;;;;;;;8.57;3.92;;;2.90;67.50;;;;;;5067693;28;20040;-61
2021/04/23 04:21:46;;;;;;;8.98;3.72;;;2.90;67.50;;;;;;5065694;28;20116;-61
2021/04/23 04:24:12;;;;;;;14.10;4.13;;;2.90;67.20;;;;;;5065774;28;20044;-61
2021/04/23 04:26:37;;;;;;;8.93;3.83;;;2.90;67.40;;;;;;5065476;28;20276;-62
2021/04/23 04:29:03;;;;;;;10.57;3.92;;;2.90;67.70;;;;;;5065283;28;20067;-61
2021/04/23 04:31:30;;;;;;;10.25;3.97;;;2.90;67.80;;;;;;5067149;28;20064;-61
2021/04/23 04:33:57;;;;;;;8.48;4.47;;;3.10;67.70;;;;;;5065686;28;20033;-61
2021/04/23 04:36:22;;;;;;;7.22;3.85;;;3.10;67.70;;;;;;5065532;28;20040;-62
2021/04/23 04:38:48;;;;;;;10.30;4.13;;;3.00;67.50;;;;;;5065285;28;20273;-62
2021/04/23 04:41:13;;;;;;;9.30;4.20;;;3.00;67.20;;;;;;5064957;28;20228;-61
2021/04/23 04:43:39;;;;;;;9.50;3.97;;;3.10;67.10;;;;;;5066938;28;20025;-61
2021/04/23 04:46:05;;;;;;;12.10;4.18;;;3.20;67.60;;;;;;5065276;28;20041;-62
2021/04/23 04:48:31;;;;;;;7.38;4.05;;;3.20;68.30;;;;;;5064979;28;20041;-61
2021/04/23 04:50:58;;;;;;;8.68;4.47;;;3.60;67.00;;;;;;5064439;28;20048;-62
2021/04/23 04:53:24;;;;;;;11.63;4.18;;;3.60;66.10;;;;;;5059413;28;20037;-61
2021/04/23 04:55:51;;;;;;;9.20;4.10;;;3.80;65.50;;;;;;5045062;28;20037;-62
2021/04/23 04:58:19;;;;;;;14.10;5.07;;;3.60;66.40;;;;;;5066366;28;20296;-62
2021/04/23 05:00:44;;;;;;;15.18;4.93;;;3.40;67.00;;;;;;5064644;28;20040;-61
2021/04/23 05:03:10;;;;;;;11.10;4.65;;;3.70;67.50;;;;;;5063155;28;20037;-61
2021/04/23 05:05:36;;;;;;;11.52;5.03;;;3.70;66.20;;;;;;5064509;28;20029;-61
2021/04/23 05:08:02;;;;;;;16.42;5.18;;;4.00;66.70;;;;;;5064671;28;20017;-61
2021/04/23 05:10:28;;;;;;;9.50;4.70;;;4.20;65.30;;;;;;5066187;28;20029;-62
2021/04/23 05:12:54;;;;;;;6.88;4.45;;;4.00;65.70;;;;;;5063310;28;20276;-63
2021/04/23 05:15:19;;;;;;;14.07;5.32;;;4.40;65.30;;;;;;5064860;28;20209;-64
2021/04/23 05:17:46;;;;;;;9.13;4.80;;;4.40;64.10;;;;;;5064506;28;20045;-61
2021/04/23 05:20:12;;;;;;;13.75;5.40;;;4.30;65.40;;;;;;5064242;28;20048;-63
2021/04/23 05:22:38;;;;;;;11.30;5.75;;;4.40;65.70;;;;;;5066200;28;20040;-63
2021/04/23 05:25:04;;;;;;;10.73;5.25;;;4.40;65.30;;;;;;5064736;28;20037;-62
2021/04/23 05:27:30;;;;;;;14.05;6.22;;;4.30;65.40;;;;;;5062714;28;20091;-63
2021/04/23 05:29:55;;;;;;;16.33;5.57;;;4.00;65.80;;;;;;5064183;28;20032;-62
2021/04/23 05:32:21;;;;;;;11.43;6.78;;;4.40;66.80;;;;;;5064309;28;20037;-62
2021/04/23 05:34:49;;;;;;;12.10;5.93;;;4.50;66.00;;;;;;5065431;28;20299;-63
2021/04/23 05:37:15;;;;;;;14.45;6.10;;;4.70;66.00;;;;;;5062759;28;20255;-62
2021/04/23 05:39:44;;;;;;;13.40;6.40;;;4.50;66.00;;;;;;5063895;28;20033;-62
2021/04/23 05:42:13;;;;;;;18.20;7.32;;;4.40;66.70;;;;;;5062019;28;20343;-62
2021/04/23 05:44:39;;;;;;;17.02;6.00;;;4.40;67.30;;;;;;5064168;28;20092;-63
2021/04/23 05:47:05;;;;;;;17.05;6.18;;;4.60;66.90;;;;;;5063908;28;20220;-61
2021/04/23 05:49:31;;;;;;;17.25;6.95;;;4.80;66.50;;;;;;5065585;28;20033;-61
2021/04/23 05:51:58;;;;;;;16.02;6.57;;;4.90;66.60;;;;;;5064160;28;20033;-62
2021/04/23 05:54:24;;;;;;;13.80;6.82;;;4.90;67.10;;;;;;5062434;28;20029;-64
2021/04/23 05:56:49;;;;;;;17.80;7.35;;;4.90;67.60;;;;;;5064188;28;20052;-62
2021/04/23 05:59:15;;;;;;;18.58;6.88;;;5.20;66.90;;;;;;5063654;28;20320;-62
2021/04/23 06:01:40;;;;;;;16.63;7.75;;;5.40;65.80;;;;;;5065027;28;20024;-61
2021/04/23 06:04:06;;;;;;;17.55;8.30;;;5.60;66.50;;;;;;5063506;28;20037;-62
2021/04/23 06:06:31;;;;;;;17.08;7.93;;;5.60;67.40;;;;;;5063566;28;20037;-62
2021/04/23 06:08:58;;;;;;;20.00;8.48;;;5.80;67.50;;;;;;5063459;28;20065;-62
2021/04/23 06:11:24;;;;;;;21.75;8.50;;;5.90;67.10;;;;;;5063334;28;20028;-62
2021/04/23 06:13:49;;;;;;;19.20;9.25;;;6.00;68.60;;;;;;5063393;28;20120;-63
2021/04/23 06:16:15;;;;;;;17.95;8.65;;;6.20;66.90;;;;;;5065434;28;20055;-62
2021/04/23 06:18:41;;;;;;;19.10;8.95;;;6.30;67.50;;;;;;5047681;28;20034;-61
2021/04/23 06:21:07;;;;;;;20.02;8.85;;;6.40;67.50;;;;;;5053931;28;20072;-62
2021/04/23 06:23:34;;;;;;;17.10;8.27;;;6.50;66.90;;;;;;5063241;28;20044;-63
2021/04/23 06:26:00;;;;;;;13.82;8.52;;;6.60;67.00;;;;;;5061974;28;20062;-63
2021/04/23 06:28:25;;;;;;;14.45;8.40;;;6.70;67.00;;;;;;5063421;28;20071;-63
2021/04/23 06:30:51;;;;;;;18.52;9.65;;;6.90;66.30;;;;;;5063044;28;20036;-61
2021/04/23 06:33:19;;;;;;;17.75;8.85;;;7.00;66.10;;;;;;5063180;28;20033;-63
2021/04/23 06:35:45;;;;;;;14.80;8.75;;;7.10;67.60;;;;;;5062841;28;20354;-63
2021/04/23 06:38:11;;;;;;;17.73;9.23;;;7.10;66.70;;;;;;5063018;28;20040;-63
2021/04/23 06:40:37;;;;;;;15.25;8.70;;;7.20;66.70;;;;;;5064340;28;20320;-61
2021/04/23 06:43:03;;;;;;;16.55;8.70;;;7.40;66.80;;;;;;5026866;28;20034;-62
2021/04/23 06:45:29;;;;;;;20.50;9.20;;;7.40;64.80;;;;;;5056762;28;20036;-63
2021/04/23 06:47:54;;;;;;;16.98;8.50;;;7.70;66.40;;;;;;5062658;28;20036;-62
2021/04/23 06:50:21;;;;;;;14.98;8.88;;;7.80;63.60;;;;;;5063078;28;20032;-63
2021/04/23 06:52:46;;;;;;;18.45;8.82;;;8.00;63.90;;;;;;5064597;28;20063;-63
2021/04/23 06:55:13;;;;;;;17.23;8.85;;;8.10;60.60;;;;;;5062370;28;20069;-63
2021/04/23 06:57:38;;;;;;;14.52;7.97;;;8.20;61.20;;;;;;5062854;28;20083;-62
2021/04/23 07:00:07;;;;;;;17.02;7.65;;;8.60;60.60;;;;;;5061361;28;20205;-64
2021/04/23 07:02:32;;;;;;;18.95;7.65;;;9.20;58.30;;;;;;5061624;28;20093;-64
2021/04/23 07:04:58;;;;;;;15.60;8.38;;;9.80;57.30;;;;;;5062625;28;20316;-63
2021/04/23 07:07:23;;;;;;;15.57;8.00;;;10.00;55.60;;;;;;5064301;28;20036;-62
2021/04/23 07:09:49;;;;;;;13.90;7.35;;;10.00;56.10;;;;;;5062676;28;20082;-62
2021/04/23 07:12:14;;;;;;;12.20;7.50;;;10.10;54.00;;;;;;5062111;28;20339;-63
2021/04/23 07:14:40;;;;;;;15.20;8.50;;;10.90;53.20;;;;;;5062349;28;20029;-64
2021/04/23 07:17:06;;;;;;;14.90;11.20;;;15.70;43.70;;;;;;5062057;28;20059;-64
2021/04/23 07:19:32;;;;;;;16.13;9.90;;;24.40;26.60;;;;;;5064201;28;20248;-64
2021/04/23 07:21:57;;;;;;;12.95;9.55;;;31.00;18.30;;;;;;5062684;28;20045;-64
2021/04/23 07:24:23;;;;;;;11.35;9.10;;;37.00;13.30;;;;;;5061913;28;20072;-64
2021/04/23 07:26:49;;;;;;;12.35;8.82;;;42.20;9.50;;;;;;5062146;28;20036;-64
2021/04/23 07:29:14;;;;;;;11.48;8.35;;;46.10;7.60;;;;;;5058844;28;20044;-64
2021/04/23 07:31:40;;;;;;;12.52;7.45;;;48.10;6.40;;;;;;5044105;28;20034;-65
2021/04/23 07:34:05;;;;;;;10.35;7.05;;;49.70;5.70;;;;;;5061683;28;20223;-65
2021/04/23 07:36:31;;;;;;;8.75;6.00;;;51.10;5.20;;;;;;5062111;28;20332;-64
2021/04/23 07:38:56;;;;;;;12.13;6.03;;;51.90;4.20;;;;;;5052900;28;20113;-65
2021/04/23 07:41:22;;;;;;;7.40;3.67;;;52.60;4.30;;;;;;5046946;28;20082;-65
2021/04/23 07:43:47;;;;;;;9.63;3.80;;;53.80;4.00;;;;;;5061992;28;20103;-65
2021/04/23 07:46:14;;;;;;;10.52;3.92;;;46.80;5.30;;;;;;5063703;28;20025;-65
2021/04/23 07:48:40;;;;;;;8.23;3.72;;;37.30;9.30;;;;;;5062241;28;20061;-65
2021/04/23 07:51:06;;;;;;;9.30;3.90;;;30.90;13.20;;;;;;5061666;28;20052;-68
2021/04/23 07:53:31;;;;;;;9.40;3.80;;;24.30;17.70;;;;;;5061087;28;20037;-63
2021/04/23 07:55:57;;;;;;;11.38;4.18;;;21.00;21.90;;;;;;5062179;28;20037;-63
2021/04/23 07:58:22;;;;;;;10.60;4.25;;;18.40;25.30;;;;;;5063489;28;20216;-62
2021/04/23 08:00:48;;;;;;;7.53;4.40;;;17.20;27.80;;;;;;5062270;28;20098;-61
2021/04/23 08:03:14;;;;;;;9.38;4.25;;;16.30;28.80;;;;;;5062280;28;20033;-62
2021/04/23 08:05:40;;;;;;;15.00;3.80;;;15.80;30.80;;;;;;5062021;28;20092;-64
2021/04/23 08:08:05;;;;;;;8.82;3.80;;;15.40;32.10;;;;;;5060660;28;20216;-66
2021/04/23 08:10:31;;;;;;;13.63;4.47;;;15.00;33.10;;;;;;5063707;28;20212;-63
2021/04/23 08:12:57;;;;;;;10.05;4.32;;;14.60;33.10;;;;;;5062198;28;20201;-64
2021/04/23 08:15:24;;;;;;;14.20;4.32;;;14.50;33.40;;;;;;5061679;28;20045;-66
2021/04/23 08:17:49;;;;;;;9.57;4.43;;;14.50;33.40;;;;;;5053024;28;20091;-63
2021/04/23 08:20:15;;;;;;;11.20;4.40;;;14.40;33.00;;;;;;5044419;28;20104;-65
2021/04/23 08:22:41;;;;;;;13.80;4.63;;;14.40;32.70;;;;;;5063102;28;20063;-63
2021/04/23 08:25:07;;;;;;;10.48;4.57;;;14.40;32.80;;;;;;5062149;28;20059;-64
2021/04/23 08:27:33;;;;;;;11.57;4.38;;;14.40;34.90;;;;;;5061777;28;20075;-66
2021/04/23 08:29:59;;;;;;;10.05;3.83;;;14.40;33.30;;;;;;5065290;28;20045;-68
2021/04/23 08:32:24;;;;;;;13.50;4.80;;;14.40;33.00;;;;;;5065343;28;20039;-66
2021/04/23 08:34:50;;;;;;;13.27;4.22;;;14.40;33.60;;;;;;5065186;28;20048;-64
2021/04/23 08:37:16;;;;;;;12.63;4.25;;;14.50;34.00;;;;;;5066600;28;20025;-63
2021/04/23 08:39:41;;;;;;;16.50;5.22;;;14.50;31.60;;;;;;5065374;28;20048;-64
2021/04/23 08:42:07;;;;;;;10.85;5.00;;;14.30;33.80;;;;;;5065358;28;20045;-64
2021/04/23 08:44:33;;;;;;;9.82;4.13;;;14.40;32.80;;;;;;5063956;28;20033;-63
2021/04/23 08:46:59;;;;;;;19.10;4.78;;;14.70;33.70;;;;;;5063419;28;20224;-62
2021/04/23 08:49:24;;;;;;;11.40;4.35;;;14.90;34.30;;;;;;5046764;28;20029;-63
2021/04/23 08:51:50;;;;;;;8.88;4.38;;;15.00;33.50;;;;;;5061186;28;20104;-63
2021/04/23 08:54:16;;;;;;;10.57;4.80;;;15.00;32.80;;;;;;5065389;28;20044;-63
2021/04/23 08:56:41;;;;;;;10.48;4.35;;;15.10;33.70;;;;;;5063724;28;20029;-62
2021/04/23 08:59:07;;;;;;;13.50;4.60;;;14.90;31.40;;;;;;5064639;28;20275;-64
2021/04/23 09:01:33;;;;;;;14.20;5.43;;;14.50;32.50;;;;;;5066250;28;20239;-63
2021/04/23 09:03:58;;;;;;;12.95;4.68;;;14.60;32.20;;;;;;5065208;28;20363;-63
2021/04/23 09:06:28;;;;;;;15.32;4.82;;;14.80;33.80;;;;;;5064312;28;20096;-70
2021/04/23 09:08:56;;;;;;;14.43;5.22;;;14.80;32.70;;;;;;5064541;28;20037;-68
2021/04/23 09:11:36;;;;;;;15.57;5.10;;;15.10;33.10;;;;;;5064181;28;20040;-68
2021/04/23 09:14:03;;;;;;;14.65;5.53;;;15.30;34.70;;;;;;5064777;28;20067;-65
2021/04/23 09:16:48;;;;;;;11.50;4.95;;;15.30;33.50;;;;;;5066055;28;20247;-65
2021/04/23 09:19:22;;;;;;;15.43;5.38;;;15.30;33.50;;;;;;5063818;28;20040;-64
2021/04/23 09:21:53;;;;;;;15.05;5.82;;;15.30;32.00;;;;;;5063217;28;20049;-67
2021/04/23 09:24:20;;;;;;;16.33;5.35;;;15.30;32.30;;;;;;5063961;28;20041;-64
2021/04/23 09:26:48;;;;;;;13.32;5.63;;;15.30;33.00;;;;;;5055085;28;20037;-65
2021/04/23 09:29:28;;;;;;;14.90;5.82;;;15.40;31.80;;;;;;5046956;28;20039;-65
2021/04/23 09:31:55;;;;;;;26.27;6.30;;;15.40;32.40;;;;;;5063767;28;20037;-65
2021/04/23 09:34:21;;;;;;;14.90;4.65;;;15.60;32.70;;;;;;5064594;28;20078;-64
2021/04/23 09:36:47;;;;;;;17.23;4.78;;;15.50;32.30;;;;;;5047412;28;20340;-65
2021/04/23 09:39:16;;;;;;;13.25;5.53;;;15.90;33.50;;;;;;5043506;28;20388;-65
2021/04/23 09:41:54;;;;;;;12.65;5.00;;;15.60;30.70;;;;;;5051442;28;20044;-67
2021/04/23 09:44:33;;;;;;;14.25;5.35;;;15.50;30.60;;;;;;5059607;28;20038;-65
2021/04/23 09:47:13;;;;;;;12.27;5.15;;;15.50;32.40;;;;;;5045752;28;20044;-63
2021/04/23 09:49:39;;;;;;;17.05;5.90;;;15.50;33.00;;;;;;5064294;28;20058;-64
2021/04/23 09:52:06;;;;;;;13.32;4.80;;;15.50;33.30;;;;;;5044844;28;20336;-64
2021/04/23 09:54:32;;;;;;;15.02;4.75;;;15.80;32.60;;;;;;5058419;28;20029;-65
2021/04/23 09:56:57;;;;;;;12.35;5.00;;;16.00;33.50;;;;;;5064183;28;20104;-64
2021/04/23 09:59:30;;;;;;;20.80;5.43;;;16.10;31.70;;;;;;5063607;28;20085;-66
2021/04/23 10:02:00;;;;;;;11.23;4.80;;;16.30;32.10;;;;;;5062301;28;20033;-66
2021/04/23 10:04:26;;;;;;;13.93;5.10;;;16.30;31.80;;;;;;5065707;28;20028;-64
2021/04/23 10:07:12;;;;;;;14.55;4.72;;;16.40;31.10;;;;;;5064134;28;20037;-65
2021/04/23 10:09:56;;;;;;;13.25;4.57;;;16.30;29.00;;;;;;5064072;28;20036;-67
2021/04/23 10:12:53;;;;;;;12.40;5.22;;;16.10;29.70;;;;;;5064158;28;20060;-65
2021/04/23 10:15:26;;;;;;;14.73;4.63;;;16.30;33.00;;;;;;5062400;28;20339;-64
2021/04/23 10:17:53;;;;;;;12.60;4.45;;;16.80;31.60;;;;;;5063631;28;20301;-63
2021/04/23 10:20:27;;;;;;;11.60;4.40;;;16.80;30.10;;;;;;5059243;28;20049;-63
2021/04/23 10:22:53;;;;;;;13.65;4.65;;;16.80;31.00;;;;;;5043917;28;20351;-64
2021/04/23 10:25:19;;;;;;;10.32;4.20;;;16.90;28.30;;;;;;5014762;28;20013;-63
2021/04/23 10:27:45;;;;;;;11.00;3.80;;;16.90;28.50;;;;;;5063495;28;20041;-62
2021/04/23 10:30:16;;;;;;;8.98;3.63;;;16.90;28.00;;;;;;5063239;28;20099;-64
2021/04/23 10:32:45;;;;;;;;;;;16.90;28.30;;;;;;5063796;28;20037;-64
2021/04/23 10:35:11;;;;;;;10.05;3.40;;;17.00;29.60;;;;;;5059723;28;19905;-63
2021/04/23 10:37:36;;;;;;;9.43;3.47;;;17.00;27.10;;;;;;5044615;28;20082;-63
2021/04/23 10:40:03;;;;;;;8.73;3.83;;;17.10;26.90;;;;;;5061590;28;20336;-64
2021/04/23 10:42:47;;;;;;;9.73;3.97;;;17.20;26.50;;;;;;5063150;28;20036;-63
2021/04/23 10:45:41;;;;;;;11.43;3.90;;;17.30;26.60;;;;;;5062911;28;20387;-64
2021/04/23 10:48:14;;;;;;;9.38;3.22;;;17.40;29.40;;;;;;5005571;28;20363;-63
2021/04/23 10:50:47;;;;;;;5.18;2.85;;;17.50;27.50;;;;;;5049399;28;20206;-63
2021/04/23 10:53:45;;;;;;;7.38;2.80;;;17.40;26.70;;;;;;5063351;28;20037;-63
2021/04/23 10:56:34;;;;;;;5.93;2.85;;;17.50;26.50;;;;;;5062964;28;20216;-63
2021/04/23 10:59:29;;;;;;;10.82;3.00;;;17.50;26.60;;;;;;5063043;28;20119;-63
2021/04/23 11:02:14;;;;;;;13.40;3.55;;;17.70;27.30;;;;;;5061357;28;20037;-62
2021/04/23 11:04:59;;;;;;;7.93;3.53;;;17.60;27.40;;;;;;5064003;28;20086;-63
2021/04/23 11:07:25;;;;;;;9.00;3.78;;;17.80;24.90;;;;;;5063151;28;20075;-64
2021/04/23 11:10:01;;;;;;;9.88;3.88;;;17.70;26.30;;;;;;5028057;28;20037;-65
2021/04/23 11:12:27;;;;;;;11.32;4.00;;;17.70;28.20;;;;;;5056134;28;20357;-64
2021/04/23 11:15:13;;;;;;;12.40;4.45;;;17.80;27.70;;;;;;5062270;28;20051;-66
2021/04/23 11:17:39;;;;;;;7.65;3.70;;;17.80;26.70;;;;;;5061220;28;20025;-66
2021/04/23 11:20:29;;;;;;;10.55;3.83;;;18.00;28.30;;;;;;5060966;28;20232;-69
2021/04/23 11:22:56;;;;;;;9.73;3.90;;;18.20;28.10;;;;;;5061163;28;20025;-68
2021/04/23 11:25:22;;;;;;;9.82;3.67;;;18.20;25.80;;;;;;5064635;28;20021;-67
2021/04/23 11:27:59;;;;;;;13.00;4.00;;;18.10;25.40;;;;;;5062436;28;20048;-65
2021/04/23 11:30:25;;;;;;;10.80;4.25;;;17.90;24.90;;;;;;5062086;28;20047;-64
2021/04/23 11:32:55;;;;;;;10.80;4.35;;;17.90;26.80;;;;;;5062001;28;20247;-68
2021/04/23 11:35:23;;;;;;;10.45;3.88;;;17.80;25.20;;;;;;5061053;28;20044;-66
2021/04/23 11:37:49;;;;;;;14.50;4.40;;;17.90;26.70;;;;;;5060846;28;20067;-66
2021/04/23 11:40:25;;;;;;;11.07;4.47;;;18.10;26.80;;;;;;5063860;28;20084;-68
2021/04/23 11:42:55;;;;;;;8.25;4.10;;;18.10;24.80;;;;;;5061634;28;20041;-68
2021/04/23 11:45:37;;;;;;;12.98;4.13;;;18.20;26.10;;;;;;5060538;28;20052;-67
2021/04/23 11:48:05;;;;;;;9.70;4.10;;;18.10;26.40;;;;;;5061124;28;20100;-65
2021/04/23 11:50:31;;;;;;;13.45;4.47;;;18.30;26.30;;;;;;5061813;28;20150;-67
2021/04/23 11:52:59;;;;;;;8.93;3.97;;;18.00;24.40;;;;;;5062866;28;20088;-68
2021/04/23 11:55:46;;;;;;;11.73;4.50;;;17.60;26.00;;;;;;5063818;28;20088;-68
2021/04/23 11:58:22;;;;;;;13.55;4.50;;;17.60;24.80;;;;;;5060890;28;20041;-68
2021/04/23 12:00:52;;;;;;;10.18;4.55;;;17.70;25.50;;;;;;5061050;28;20041;-69
2021/04/23 12:03:19;;;;;;;9.52;4.40;;;18.00;26.80;;;;;;5063424;28;20339;-69
2021/04/23 12:05:46;;;;;;;12.02;3.80;;;18.30;26.90;;;;;;5065535;28;20036;-67
2021/04/23 12:08:11;;;;;;;11.30;3.85;;;18.40;26.80;;;;;;5065889;28;20096;-67
2021/04/23 12:10:42;;;;;;;15.73;4.75;;;18.60;27.10;;;;;;5067472;28;20036;-67
2021/04/23 12:13:16;;;;;;;9.25;4.93;;;18.50;25.80;;;;;;5046779;28;20068;-65
2021/04/23 12:15:43;;;;;;;10.15;4.40;;;18.50;25.20;;;;;;5061189;28;20037;-67
2021/04/23 12:18:09;;;;;;;10.65;4.00;;;18.60;23.80;;;;;;5054038;28;20064;-66
2021/04/23 12:20:40;;;;;;;12.77;4.00;;;18.40;24.40;;;;;;5051809;28;20051;-67
2021/04/23 12:23:06;;;;;;;;;;;18.50;24.70;;;;;;5066133;28;20099;-67
2021/04/23 12:25:36;;;;;;;9.48;3.88;;;18.60;25.40;;;;;;5066974;28;19901;-67
2021/04/23 12:28:22;;;;;;;9.77;4.13;;;18.50;25.20;;;;;;5065364;28;20037;-66
2021/04/23 12:30:56;;;;;;;10.48;3.72;;;18.60;25.30;;;;;;5064530;28;20041;-66
2021/04/23 12:33:22;;;;;;;9.98;4.05;;;18.50;25.80;;;;;;5052652;28;20132;-65
2021/04/23 12:35:49;;;;;;;9.95;3.90;;;18.40;22.80;;;;;;5053502;28;20045;-66
2021/04/23 12:38:16;;;;;;;12.18;4.25;;;18.20;24.90;;;;;;5065251;28;20172;-66
2021/04/23 12:40:43;;;;;;;7.53;3.47;;;18.50;25.60;;;;;;5066070;28;20036;-66
2021/04/23 12:43:17;;;;;;;10.77;3.88;;;18.60;25.90;;;;;;5064080;28;20033;-66
2021/04/23 12:45:44;;;;;;;9.07;4.38;;;18.70;24.70;;;;;;5065338;28;20033;-65
2021/04/23 12:48:10;;;;;;;6.05;3.67;;;18.30;23.10;;;;;;5065105;28;20041;-63
2021/04/23 12:50:36;;;;;;;11.43;3.80;;;18.60;25.40;;;;;;5064791;28;20096;-63
2021/04/23 12:53:01;;;;;;;8.05;3.25;;;18.80;24.30;;;;;;5063721;28;20029;-63